createdAt,value
2022-12-06T00:00:26.233Z,16.35
2022-12-06T00:01:26.602Z,16.35
2022-12-06T00:02:26.252Z,16.35
2022-12-06T00:03:26.316Z,16.35
2022-12-06T00:04:26.192Z,16.33
2022-12-06T00:05:26.194Z,16.35
2022-12-06T00:06:26.160Z,16.36
2022-12-06T00:07:26.161Z,16.35
2022-12-06T00:08:26.157Z,16.35
2022-12-06T00:09:26.162Z,16.36
2022-12-06T00:10:26.214Z,16.36
2022-12-06T00:11:26.125Z,16.36
2022-12-06T00:12:26.124Z,16.36
2022-12-06T00:13:26.078Z,16.38
2022-12-06T00:14:26.113Z,16.38
2022-12-06T00:15:26.075Z,16.38
2022-12-06T00:16:26.192Z,16.38
2022-12-06T00:17:26.073Z,16.36
2022-12-06T00:18:26.064Z,16.38
2022-12-06T00:19:26.017Z,16.38
2022-12-06T00:20:26.132Z,16.38
2022-12-06T00:21:25.999Z,16.38
2022-12-06T00:22:29.175Z,16.39
2022-12-06T00:23:31.413Z,16.38
2022-12-06T00:24:26.984Z,16.36
2022-12-06T00:25:25.958Z,16.36
2022-12-06T00:26:25.963Z,16.36
2022-12-06T00:27:25.939Z,16.36
2022-12-06T00:28:25.935Z,16.35
2022-12-06T00:29:25.919Z,16.36
2022-12-06T00:30:25.901Z,16.36
2022-12-06T00:31:25.927Z,16.35
2022-12-06T00:32:25.965Z,16.35
2022-12-06T00:33:25.854Z,16.35
2022-12-06T00:34:25.860Z,16.33
2022-12-06T00:35:25.845Z,16.35
2022-12-06T00:36:25.834Z,16.33
2022-12-06T00:37:25.821Z,16.33
2022-12-06T00:38:25.809Z,16.33
2022-12-06T00:39:25.811Z,16.33
2022-12-06T00:40:25.786Z,16.33
2022-12-06T00:41:25.768Z,16.33
2022-12-06T00:42:25.798Z,16.32
2022-12-06T00:43:25.769Z,16.32
2022-12-06T00:44:25.757Z,16.32
2022-12-06T00:45:25.726Z,16.32
2022-12-06T00:46:25.822Z,16.33
2022-12-06T00:47:25.718Z,16.35
2022-12-06T00:48:25.705Z,16.36
2022-12-06T00:49:25.700Z,16.35
2022-12-06T00:50:25.690Z,16.38
2022-12-06T00:51:25.655Z,16.36
2022-12-06T00:52:25.679Z,16.39
2022-12-06T00:53:25.635Z,16.38
2022-12-06T00:54:25.655Z,16.38
2022-12-06T00:55:25.625Z,16.38
2022-12-06T00:56:25.632Z,16.38
2022-12-06T00:57:25.614Z,16.36
2022-12-06T00:58:25.606Z,16.36
2022-12-06T00:59:26.525Z,16.38
2022-12-06T01:00:25.607Z,16.35
2022-12-06T01:01:25.668Z,16.35
2022-12-06T01:02:25.545Z,16.32
2022-12-06T01:03:27.760Z,16.32
2022-12-06T01:04:26.529Z,16.31
2022-12-06T01:05:25.539Z,16.31
2022-12-06T01:06:25.514Z,16.31
2022-12-06T01:07:25.476Z,16.29
2022-12-06T01:08:25.490Z,16.29
2022-12-06T01:09:25.478Z,16.28
2022-12-06T01:10:25.506Z,16.28
2022-12-06T01:11:25.468Z,16.28
2022-12-06T01:12:25.448Z,16.28
2022-12-06T01:13:25.436Z,16.28
2022-12-06T01:14:25.414Z,16.28
2022-12-06T01:15:25.394Z,16.28
2022-12-06T01:16:25.484Z,16.26
2022-12-06T01:17:25.478Z,16.26
2022-12-06T01:18:25.366Z,16.26
2022-12-06T01:19:25.376Z,16.28
2022-12-06T01:20:25.355Z,16.28
2022-12-06T01:21:25.330Z,16.28
2022-12-06T01:22:25.590Z,16.26
2022-12-06T01:23:25.357Z,16.28
2022-12-06T01:24:25.316Z,16.28
2022-12-06T01:25:26.266Z,16.26
2022-12-06T01:26:25.305Z,16.26
2022-12-06T01:27:25.272Z,16.28
2022-12-06T01:28:25.256Z,16.28
2022-12-06T01:29:25.298Z,16.28
2022-12-06T01:30:25.295Z,16.28
2022-12-06T01:31:25.257Z,16.26
2022-12-06T01:32:25.249Z,16.29
2022-12-06T01:33:25.446Z,16.28
2022-12-06T01:34:25.209Z,16.28
2022-12-06T01:35:25.181Z,16.28
2022-12-06T01:36:25.185Z,16.28
2022-12-06T01:37:25.197Z,16.28
2022-12-06T01:38:25.157Z,16.28
2022-12-06T01:39:25.150Z,16.29
2022-12-06T01:40:25.175Z,16.26
2022-12-06T01:41:25.132Z,16.28
2022-12-06T01:42:25.115Z,16.28
2022-12-06T01:43:25.112Z,16.26
2022-12-06T01:44:25.095Z,16.26
2022-12-06T01:45:25.088Z,16.28
2022-12-06T01:46:25.236Z,16.28
2022-12-06T01:47:25.061Z,16.26
2022-12-06T01:48:25.043Z,16.26
2022-12-06T01:49:25.033Z,16.26
2022-12-06T01:50:25.027Z,16.26
2022-12-06T01:51:25.008Z,16.28
2022-12-06T01:52:25.000Z,16.26
2022-12-06T01:53:25.795Z,16.26
2022-12-06T01:54:24.995Z,16.24
2022-12-06T01:55:24.967Z,16.26
2022-12-06T01:56:24.976Z,16.26
2022-12-06T01:57:24.939Z,16.24
2022-12-06T01:58:45.929Z,16.24
2022-12-06T01:59:24.934Z,16.24
2022-12-06T02:00:24.922Z,16.24
2022-12-06T02:01:25.059Z,16.24
2022-12-06T02:02:24.932Z,16.24
2022-12-06T02:03:24.868Z,16.24
2022-12-06T02:04:25.580Z,16.23
2022-12-06T02:05:24.865Z,16.23
2022-12-06T02:06:25.117Z,16.23
2022-12-06T02:07:25.246Z,16.23
2022-12-06T02:08:24.908Z,16.21
2022-12-06T02:09:24.798Z,16.23
2022-12-06T02:10:24.797Z,16.23
2022-12-06T02:11:24.785Z,16.21
2022-12-06T02:12:24.947Z,16.23
2022-12-06T02:13:24.783Z,16.21
2022-12-06T02:14:24.757Z,16.23
2022-12-06T02:15:24.751Z,16.21
2022-12-06T02:16:24.789Z,16.21
2022-12-06T02:17:24.746Z,16.21
2022-12-06T02:18:24.718Z,16.21
2022-12-06T02:19:24.732Z,16.21
2022-12-06T02:20:24.702Z,16.21
2022-12-06T02:21:24.693Z,16.23
2022-12-06T02:22:24.657Z,16.23
2022-12-06T02:23:24.646Z,16.21
2022-12-06T02:24:24.959Z,16.21
2022-12-06T02:25:24.661Z,16.21
2022-12-06T02:26:24.639Z,16.21
2022-12-06T02:27:24.606Z,16.21
2022-12-06T02:28:24.604Z,16.21
2022-12-06T02:29:24.587Z,16.21
2022-12-06T02:30:24.580Z,16.21
2022-12-06T02:31:25.437Z,16.21
2022-12-06T02:32:24.963Z,16.21
2022-12-06T02:33:24.545Z,16.21
2022-12-06T02:34:24.547Z,16.21
2022-12-06T02:35:24.539Z,16.23
2022-12-06T02:36:24.518Z,16.21
2022-12-06T02:37:24.519Z,16.21
2022-12-06T02:38:24.499Z,16.23
2022-12-06T02:39:24.475Z,16.21
2022-12-06T02:40:24.473Z,16.23
2022-12-06T02:41:24.455Z,16.21
2022-12-06T02:42:24.462Z,16.21
2022-12-06T02:43:24.447Z,16.21
2022-12-06T02:44:24.414Z,16.21
2022-12-06T02:45:24.413Z,16.21
2022-12-06T02:46:24.456Z,16.20
2022-12-06T02:47:24.394Z,16.20
2022-12-06T02:48:24.377Z,16.20
2022-12-06T02:49:24.365Z,16.20
2022-12-06T02:50:24.345Z,16.20
2022-12-06T02:51:24.351Z,16.20
2022-12-06T02:52:24.377Z,16.17
2022-12-06T02:53:24.338Z,16.16
2022-12-06T02:54:24.303Z,16.16
2022-12-06T02:55:24.305Z,16.17
2022-12-06T02:56:24.314Z,16.17
2022-12-06T02:57:24.292Z,16.17
2022-12-06T02:58:24.295Z,16.16
2022-12-06T02:59:24.277Z,16.15
2022-12-06T03:00:24.235Z,16.15
2022-12-06T03:01:24.269Z,16.16
2022-12-06T03:02:24.267Z,16.15
2022-12-06T03:03:24.231Z,16.15
2022-12-06T03:04:24.210Z,16.15
2022-12-06T03:05:24.197Z,16.15
2022-12-06T03:06:24.196Z,16.16
2022-12-06T03:07:24.186Z,16.15
2022-12-06T03:08:24.183Z,16.13
2022-12-06T03:09:24.153Z,16.16
2022-12-06T03:10:24.196Z,16.15
2022-12-06T03:11:24.122Z,16.13
2022-12-06T03:12:24.112Z,16.15
2022-12-06T03:13:24.118Z,16.13
2022-12-06T03:14:24.115Z,16.13
2022-12-06T03:15:24.114Z,16.15
2022-12-06T03:16:24.099Z,16.13
2022-12-06T03:17:24.061Z,16.12
2022-12-06T03:18:24.054Z,16.15
2022-12-06T03:19:24.055Z,16.13
2022-12-06T03:20:24.047Z,16.13
2022-12-06T03:21:24.038Z,16.13
2022-12-06T03:22:24.016Z,16.12
2022-12-06T03:23:23.992Z,16.13
2022-12-06T03:24:24.119Z,16.13
2022-12-06T03:25:24.004Z,16.13
2022-12-06T03:26:23.961Z,16.13
2022-12-06T03:27:23.953Z,16.13
2022-12-06T03:28:23.946Z,16.13
2022-12-06T03:29:23.943Z,16.15
2022-12-06T03:30:23.943Z,16.12
2022-12-06T03:31:24.001Z,16.13
2022-12-06T03:32:23.891Z,16.13
2022-12-06T03:33:23.881Z,16.12
2022-12-06T03:34:23.879Z,16.15
2022-12-06T03:35:23.860Z,16.15
2022-12-06T03:36:23.863Z,16.15
2022-12-06T03:37:23.867Z,16.13
2022-12-06T03:38:23.844Z,16.15
2022-12-06T03:39:23.824Z,16.16
2022-12-06T03:40:23.810Z,16.15
2022-12-06T03:41:23.796Z,16.16
2022-12-06T03:42:23.803Z,16.16
2022-12-06T03:43:23.784Z,16.15
2022-12-06T03:44:23.768Z,16.16
2022-12-06T03:45:23.811Z,16.16
2022-12-06T03:46:23.831Z,16.17
2022-12-06T03:47:23.739Z,16.16
2022-12-06T03:48:23.727Z,16.17
2022-12-06T03:49:23.703Z,16.17
2022-12-06T03:50:23.702Z,16.16
2022-12-06T03:51:23.678Z,16.17
2022-12-06T03:52:23.678Z,16.20
2022-12-06T03:53:23.766Z,16.17
2022-12-06T03:54:23.669Z,16.17
2022-12-06T03:55:23.648Z,16.17
2022-12-06T03:56:23.635Z,16.17
2022-12-06T03:57:23.641Z,16.20
2022-12-06T03:58:23.617Z,16.17
2022-12-06T03:59:23.626Z,16.20
2022-12-06T04:00:23.595Z,16.20
2022-12-06T04:01:23.623Z,16.20
2022-12-06T04:02:23.581Z,16.20
2022-12-06T04:03:23.643Z,16.17
2022-12-06T04:04:23.546Z,16.21
2022-12-06T04:05:23.549Z,16.21
2022-12-06T04:06:23.541Z,16.20
2022-12-06T04:07:23.506Z,16.21
2022-12-06T04:08:23.549Z,16.20
2022-12-06T04:09:23.498Z,16.20
2022-12-06T04:10:23.496Z,16.21
2022-12-06T04:11:23.464Z,16.20
2022-12-06T04:12:23.475Z,16.21
2022-12-06T04:13:23.435Z,16.21
2022-12-06T04:14:23.431Z,16.20
2022-12-06T04:15:23.482Z,16.20
2022-12-06T04:16:23.483Z,16.20
2022-12-06T04:17:23.394Z,16.17
2022-12-06T04:18:23.411Z,16.20
2022-12-06T04:19:23.376Z,16.20
2022-12-06T04:20:23.377Z,16.17
2022-12-06T04:21:23.359Z,16.17
2022-12-06T04:22:23.375Z,16.17
2022-12-06T04:23:23.350Z,16.16
2022-12-06T04:24:23.337Z,16.16
2022-12-06T04:25:23.330Z,16.15
2022-12-06T04:26:23.329Z,16.15
2022-12-06T04:27:23.299Z,16.12
2022-12-06T04:28:23.281Z,16.15
2022-12-06T04:29:23.273Z,16.12
2022-12-06T04:30:23.280Z,16.12
2022-12-06T04:31:23.271Z,16.12
2022-12-06T04:32:23.245Z,16.09
2022-12-06T04:33:23.226Z,16.10
2022-12-06T04:34:23.222Z,16.10
2022-12-06T04:35:23.227Z,16.09
2022-12-06T04:36:23.194Z,16.09
2022-12-06T04:37:30.205Z,16.08
2022-12-06T04:38:23.183Z,16.08
2022-12-06T04:39:23.179Z,16.10
2022-12-06T04:40:23.154Z,16.08
2022-12-06T04:41:23.154Z,16.09
2022-12-06T04:42:23.158Z,16.08
2022-12-06T04:43:23.111Z,16.09
2022-12-06T04:44:23.134Z,16.08
2022-12-06T04:45:23.150Z,16.05
2022-12-06T04:46:23.142Z,16.08
2022-12-06T04:47:23.090Z,16.05
2022-12-06T04:48:23.090Z,16.05
2022-12-06T04:49:23.073Z,16.08
2022-12-06T04:50:23.040Z,16.09
2022-12-06T04:51:23.031Z,16.05
2022-12-06T04:52:23.044Z,16.08
2022-12-06T04:53:23.032Z,16.05
2022-12-06T04:54:23.014Z,16.05
2022-12-06T04:55:22.996Z,16.05
2022-12-06T04:56:22.980Z,16.08
2022-12-06T04:57:22.971Z,16.08
2022-12-06T04:58:22.985Z,16.05
2022-12-06T04:59:22.953Z,16.08
2022-12-06T05:00:22.960Z,16.05
2022-12-06T05:01:23.020Z,16.08
2022-12-06T05:02:22.923Z,16.05
2022-12-06T05:03:22.963Z,16.08
2022-12-06T05:04:22.931Z,16.08
2022-12-06T05:05:22.877Z,16.05
2022-12-06T05:06:22.916Z,16.05
2022-12-06T05:07:22.865Z,16.08
2022-12-06T05:08:22.933Z,16.08
2022-12-06T05:09:22.827Z,16.08
2022-12-06T05:10:22.833Z,16.08
2022-12-06T05:11:22.850Z,16.05
2022-12-06T05:12:22.848Z,16.05
2022-12-06T05:13:22.811Z,16.08
2022-12-06T05:14:22.776Z,16.08
2022-12-06T05:15:25.486Z,16.08
2022-12-06T05:16:23.877Z,16.05
2022-12-06T05:17:22.758Z,16.08
2022-12-06T05:18:22.774Z,16.08
2022-12-06T05:19:22.717Z,16.08
2022-12-06T05:20:22.736Z,16.08
2022-12-06T05:21:22.744Z,16.08
2022-12-06T05:22:22.709Z,16.08
2022-12-06T05:23:22.677Z,16.10
2022-12-06T05:24:22.682Z,16.10
2022-12-06T05:25:22.669Z,16.09
2022-12-06T05:26:22.661Z,16.12
2022-12-06T05:27:22.625Z,16.12
2022-12-06T05:28:22.645Z,16.12
2022-12-06T05:29:22.619Z,16.13
2022-12-06T05:30:22.625Z,16.13
2022-12-06T05:31:22.670Z,16.13
2022-12-06T05:32:22.599Z,16.13
2022-12-06T05:33:22.581Z,16.10
2022-12-06T05:34:22.606Z,16.15
2022-12-06T05:35:22.539Z,16.15
2022-12-06T05:36:22.564Z,16.15
2022-12-06T05:37:22.529Z,16.15
2022-12-06T05:38:22.531Z,16.16
2022-12-06T05:39:22.507Z,16.16
2022-12-06T05:40:22.507Z,16.17
2022-12-06T05:41:22.477Z,16.20
2022-12-06T05:42:22.807Z,16.20
2022-12-06T05:43:22.455Z,16.21
2022-12-06T05:44:22.454Z,16.20
2022-12-06T05:45:22.451Z,16.21
2022-12-06T05:46:22.500Z,16.21
2022-12-06T05:47:22.448Z,16.21
2022-12-06T05:48:22.428Z,16.23
2022-12-06T05:49:22.393Z,16.23
2022-12-06T05:50:22.394Z,16.23
2022-12-06T05:51:22.376Z,16.24
2022-12-06T05:52:22.364Z,16.24
2022-12-06T05:53:22.366Z,16.26
2022-12-06T05:54:22.349Z,16.24
2022-12-06T05:55:22.345Z,16.24
2022-12-06T05:56:22.313Z,16.24
2022-12-06T05:57:22.340Z,16.24
2022-12-06T05:58:22.291Z,16.24
2022-12-06T05:59:22.325Z,16.26
2022-12-06T06:00:22.296Z,16.26
2022-12-06T06:01:22.285Z,16.26
2022-12-06T06:02:22.394Z,16.26
2022-12-06T06:03:22.338Z,16.26
2022-12-06T06:04:22.235Z,16.26
2022-12-06T06:05:22.254Z,16.26
2022-12-06T06:06:22.216Z,16.26
2022-12-06T06:07:22.205Z,16.26
2022-12-06T06:08:22.282Z,16.28
2022-12-06T06:09:22.182Z,16.26
2022-12-06T06:10:22.197Z,16.28
2022-12-06T06:11:22.140Z,16.26
2022-12-06T06:12:22.142Z,16.24
2022-12-06T06:13:22.137Z,16.28
2022-12-06T06:14:22.128Z,16.28
2022-12-06T06:15:22.158Z,16.28
2022-12-06T06:16:22.144Z,16.26
2022-12-06T06:17:22.105Z,16.26
2022-12-06T06:18:22.103Z,16.26
2022-12-06T06:19:22.068Z,16.26
2022-12-06T06:20:22.125Z,16.26
2022-12-06T06:21:22.087Z,16.26
2022-12-06T06:22:22.052Z,16.24
2022-12-06T06:23:22.034Z,16.24
2022-12-06T06:24:22.047Z,16.24
2022-12-06T06:25:22.023Z,16.26
2022-12-06T06:26:22.009Z,16.26
2022-12-06T06:27:21.994Z,16.24
2022-12-06T06:28:21.984Z,16.24
2022-12-06T06:29:21.968Z,16.24
2022-12-06T06:30:21.966Z,16.24
2022-12-06T06:31:22.041Z,16.24
2022-12-06T06:32:21.950Z,16.24
2022-12-06T06:33:21.923Z,16.23
2022-12-06T06:34:21.911Z,16.23
2022-12-06T06:35:21.904Z,16.23
2022-12-06T06:36:21.891Z,16.24
2022-12-06T06:37:21.901Z,16.23
2022-12-06T06:38:21.861Z,16.23
2022-12-06T06:39:21.845Z,16.24
2022-12-06T06:40:21.872Z,16.23
2022-12-06T06:41:21.842Z,16.24
2022-12-06T06:42:21.840Z,16.23
2022-12-06T06:43:21.813Z,16.23
2022-12-06T06:44:21.787Z,16.23
2022-12-06T06:45:28.183Z,16.21
2022-12-06T06:46:22.852Z,16.21
2022-12-06T06:47:21.783Z,16.21
2022-12-06T06:48:21.954Z,16.21
2022-12-06T06:49:21.741Z,16.23
2022-12-06T06:50:21.750Z,16.21
2022-12-06T06:51:21.705Z,16.23
2022-12-06T06:52:21.731Z,16.23
2022-12-06T06:53:21.705Z,16.21
2022-12-06T06:54:21.689Z,16.23
2022-12-06T06:55:21.665Z,16.21
2022-12-06T06:56:21.688Z,16.23
2022-12-06T06:57:21.637Z,16.23
2022-12-06T06:58:21.645Z,16.23
2022-12-06T06:59:21.625Z,16.23
2022-12-06T07:00:21.621Z,16.21
2022-12-06T07:01:21.736Z,16.21
2022-12-06T07:02:21.671Z,16.21
2022-12-06T07:03:21.567Z,16.21
2022-12-06T07:04:21.577Z,16.21
2022-12-06T07:05:21.559Z,16.21
2022-12-06T07:06:21.534Z,16.21
2022-12-06T07:07:21.551Z,16.20
2022-12-06T07:08:21.572Z,16.21
2022-12-06T07:09:21.555Z,16.21
2022-12-06T07:10:21.493Z,16.21
2022-12-06T07:11:21.518Z,16.21
2022-12-06T07:12:21.488Z,16.20
2022-12-06T07:13:21.455Z,16.23
2022-12-06T07:14:21.465Z,16.21
2022-12-06T07:15:21.467Z,16.21
2022-12-06T07:16:21.537Z,16.20
2022-12-06T07:17:21.431Z,16.21
2022-12-06T07:18:21.415Z,16.21
2022-12-06T07:19:21.683Z,16.23
2022-12-06T07:20:21.406Z,16.20
2022-12-06T07:21:21.395Z,16.20
2022-12-06T07:22:21.374Z,16.20
2022-12-06T07:23:21.384Z,16.20
2022-12-06T07:24:21.367Z,16.20
2022-12-06T07:25:21.346Z,16.20
2022-12-06T07:26:21.345Z,16.20
2022-12-06T07:27:21.311Z,16.20
2022-12-06T07:28:21.316Z,16.20
2022-12-06T07:29:21.289Z,16.21
2022-12-06T07:30:27.078Z,16.21
2022-12-06T07:31:22.383Z,16.21
2022-12-06T07:32:21.273Z,16.21
2022-12-06T07:33:21.272Z,16.21
2022-12-06T07:34:21.225Z,16.21
2022-12-06T07:35:21.239Z,16.21
2022-12-06T07:36:21.233Z,16.21
2022-12-06T07:37:21.215Z,16.20
2022-12-06T07:38:21.197Z,16.21
2022-12-06T07:39:21.189Z,16.21
2022-12-06T07:40:41.210Z,16.21
2022-12-06T07:41:22.161Z,16.21
2022-12-06T07:42:21.235Z,16.23
2022-12-06T07:43:21.184Z,16.23
2022-12-06T07:44:21.140Z,16.23
2022-12-06T07:45:21.143Z,16.23
2022-12-06T07:46:21.139Z,16.24
2022-12-06T07:47:21.114Z,16.24
2022-12-06T07:48:21.106Z,16.24
2022-12-06T07:49:21.093Z,16.24
2022-12-06T07:50:21.079Z,16.24
2022-12-06T07:51:21.047Z,16.23
2022-12-06T07:52:21.050Z,16.24
2022-12-06T07:53:21.066Z,16.24
2022-12-06T07:54:21.035Z,16.24
2022-12-06T07:55:21.050Z,16.26
2022-12-06T07:56:20.989Z,16.26
2022-12-06T07:57:20.997Z,16.26
2022-12-06T07:58:20.983Z,16.26
2022-12-06T07:59:20.993Z,16.26
2022-12-06T08:00:20.959Z,16.24
2022-12-06T08:01:20.964Z,16.28
2022-12-06T08:02:20.943Z,16.26
2022-12-06T08:03:20.921Z,16.28
2022-12-06T08:04:21.001Z,16.26
2022-12-06T08:05:20.949Z,16.28
2022-12-06T08:06:21.007Z,16.26
2022-12-06T08:07:20.872Z,16.26
2022-12-06T08:08:26.732Z,16.24
2022-12-06T08:09:21.871Z,16.28
2022-12-06T08:10:20.835Z,16.24
2022-12-06T08:11:20.838Z,16.24
2022-12-06T08:12:20.827Z,16.24
2022-12-06T08:13:20.810Z,16.24
2022-12-06T08:14:20.792Z,16.23
2022-12-06T08:15:20.826Z,16.23
2022-12-06T08:16:20.827Z,16.24
2022-12-06T08:17:20.806Z,16.23
2022-12-06T08:18:20.760Z,16.17
2022-12-06T08:19:20.766Z,16.20
2022-12-06T08:20:20.747Z,16.17
2022-12-06T08:21:20.740Z,16.20
2022-12-06T08:22:20.706Z,16.21
2022-12-06T08:23:20.722Z,16.20
2022-12-06T08:24:20.707Z,16.20
2022-12-06T08:25:20.699Z,16.21
2022-12-06T08:26:20.671Z,16.21
2022-12-06T08:27:20.684Z,16.20
2022-12-06T08:28:20.635Z,16.20
2022-12-06T08:29:20.659Z,16.21
2022-12-06T08:30:20.629Z,16.21
2022-12-06T08:31:20.708Z,16.21
2022-12-06T08:32:20.611Z,16.21
2022-12-06T08:33:20.620Z,16.20
2022-12-06T08:34:20.587Z,16.21
2022-12-06T08:35:20.574Z,16.23
2022-12-06T08:36:20.573Z,16.21
2022-12-06T08:37:20.594Z,16.23
2022-12-06T08:38:20.579Z,16.23
2022-12-06T08:39:20.578Z,16.24
2022-12-06T08:40:20.512Z,16.24
2022-12-06T08:41:20.535Z,16.24
2022-12-06T08:42:25.004Z,16.23
2022-12-06T08:43:20.501Z,16.23
2022-12-06T08:44:20.483Z,16.23
2022-12-06T08:45:20.467Z,16.23
2022-12-06T08:46:20.531Z,16.21
2022-12-06T08:47:20.445Z,16.23
2022-12-06T08:48:20.447Z,16.23
2022-12-06T08:49:20.446Z,16.21
2022-12-06T08:50:20.416Z,16.21
2022-12-06T08:51:20.397Z,16.21
2022-12-06T08:52:20.399Z,16.23
2022-12-06T08:53:20.391Z,16.21
2022-12-06T08:54:20.396Z,16.21
2022-12-06T08:55:20.354Z,16.21
2022-12-06T08:56:20.346Z,16.21
2022-12-06T08:57:20.347Z,16.20
2022-12-06T08:58:20.334Z,16.21
2022-12-06T08:59:20.342Z,16.21
2022-12-06T09:00:20.305Z,16.21
2022-12-06T09:01:20.366Z,16.21
2022-12-06T09:02:20.378Z,16.20
2022-12-06T09:03:20.450Z,16.21
2022-12-06T09:04:20.376Z,16.21
2022-12-06T09:05:20.281Z,16.20
2022-12-06T09:06:20.247Z,16.21
2022-12-06T09:07:20.254Z,16.20
2022-12-06T09:08:20.278Z,16.20
2022-12-06T09:09:20.207Z,16.20
2022-12-06T09:10:20.200Z,16.21
2022-12-06T09:11:20.202Z,16.20
2022-12-06T09:12:20.181Z,16.21
2022-12-06T09:13:20.165Z,16.21
2022-12-06T09:14:22.279Z,16.20
2022-12-06T09:15:20.151Z,16.20
2022-12-06T09:16:20.222Z,16.21
2022-12-06T09:17:20.154Z,16.21
2022-12-06T09:18:20.107Z,16.21
2022-12-06T09:19:20.093Z,16.21
2022-12-06T09:20:20.083Z,16.23
2022-12-06T09:21:20.072Z,16.21
2022-12-06T09:22:20.060Z,16.21
2022-12-06T09:23:20.073Z,16.23
2022-12-06T09:24:20.112Z,16.23
2022-12-06T09:25:20.030Z,16.23
2022-12-06T09:26:20.034Z,16.23
2022-12-06T09:27:20.054Z,16.23
2022-12-06T09:28:19.995Z,16.23
2022-12-06T09:29:20.081Z,16.23
2022-12-06T09:30:20.251Z,16.21
2022-12-06T09:31:20.061Z,16.21
2022-12-06T09:32:19.948Z,16.23
2022-12-06T09:33:19.952Z,16.24
2022-12-06T09:34:20.320Z,16.23
2022-12-06T09:35:24.915Z,16.23
2022-12-06T09:36:20.934Z,16.23
2022-12-06T09:37:19.912Z,16.23
2022-12-06T09:38:19.889Z,16.24
2022-12-06T09:39:19.894Z,16.23
2022-12-06T09:40:19.940Z,16.23
2022-12-06T09:41:19.860Z,16.23
2022-12-06T09:42:19.856Z,16.23
2022-12-06T09:43:19.841Z,16.23
2022-12-06T09:44:19.810Z,16.23
2022-12-06T09:45:19.823Z,16.23
2022-12-06T09:46:19.857Z,16.23
2022-12-06T09:47:19.801Z,16.23
2022-12-06T09:48:19.788Z,16.21
2022-12-06T09:49:19.771Z,16.23
2022-12-06T09:50:19.782Z,16.23
2022-12-06T09:51:19.748Z,16.23
2022-12-06T09:52:19.745Z,16.24
2022-12-06T09:53:19.742Z,16.23
2022-12-06T09:54:19.732Z,16.23
2022-12-06T09:55:19.716Z,16.24
2022-12-06T09:56:19.723Z,16.24
2022-12-06T09:57:19.693Z,16.24
2022-12-06T09:58:19.678Z,16.23
2022-12-06T09:59:19.670Z,16.23
2022-12-06T10:00:22.934Z,16.23
2022-12-06T10:01:19.705Z,16.24
2022-12-06T10:02:19.726Z,16.23
2022-12-06T10:03:19.743Z,16.23
2022-12-06T10:04:19.633Z,16.23
2022-12-06T10:05:19.603Z,16.21
2022-12-06T10:06:19.590Z,16.24
2022-12-06T10:07:19.600Z,16.24
2022-12-06T10:08:19.680Z,16.24
2022-12-06T10:09:19.620Z,16.23
2022-12-06T10:10:19.525Z,16.23
2022-12-06T10:11:19.521Z,16.23
2022-12-06T10:12:19.521Z,16.23
2022-12-06T10:13:19.506Z,16.21
2022-12-06T10:14:19.496Z,16.21
2022-12-06T10:15:19.476Z,16.23
2022-12-06T10:16:19.532Z,16.23
2022-12-06T10:17:19.456Z,16.24
2022-12-06T10:18:19.479Z,16.24
2022-12-06T10:19:19.538Z,16.23
2022-12-06T10:20:19.428Z,16.23
2022-12-06T10:21:19.415Z,16.23
2022-12-06T10:22:19.408Z,16.23
2022-12-06T10:23:19.418Z,16.24
2022-12-06T10:24:19.402Z,16.24
2022-12-06T10:25:19.364Z,16.23
2022-12-06T10:26:19.412Z,16.26
2022-12-06T10:27:19.355Z,16.23
2022-12-06T10:28:19.422Z,16.23
2022-12-06T10:29:21.108Z,16.23
2022-12-06T10:30:20.306Z,16.23
2022-12-06T10:31:19.419Z,16.24
2022-12-06T10:32:19.325Z,16.24
2022-12-06T10:33:19.278Z,16.23
2022-12-06T10:34:19.284Z,16.23
2022-12-06T10:35:19.252Z,16.23
2022-12-06T10:36:19.249Z,16.23
2022-12-06T10:37:19.251Z,16.23
2022-12-06T10:38:26.255Z,16.21
2022-12-06T10:39:19.226Z,16.23
2022-12-06T10:40:21.970Z,16.21
2022-12-06T10:41:19.216Z,16.24
2022-12-06T10:42:19.195Z,16.24
2022-12-06T10:43:19.188Z,16.23
2022-12-06T10:44:19.151Z,16.24
2022-12-06T10:45:24.678Z,16.23
2022-12-06T10:46:20.206Z,16.24
2022-12-06T10:47:19.165Z,16.24
2022-12-06T10:48:19.110Z,16.26
2022-12-06T10:49:19.114Z,16.24
2022-12-06T10:50:19.092Z,16.23
2022-12-06T10:51:19.079Z,16.23
2022-12-06T10:52:19.083Z,16.24
2022-12-06T10:53:19.116Z,16.24
2022-12-06T10:54:19.061Z,16.23
2022-12-06T10:55:19.029Z,16.24
2022-12-06T10:56:19.010Z,16.23
2022-12-06T10:57:19.011Z,16.21
2022-12-06T10:58:19.014Z,16.23
2022-12-06T10:59:19.004Z,16.24
2022-12-06T11:00:19.173Z,16.23
2022-12-06T11:01:19.009Z,16.21
2022-12-06T11:02:19.026Z,16.23
2022-12-06T11:03:18.956Z,16.23
2022-12-06T11:04:18.937Z,16.23
2022-12-06T11:05:18.943Z,16.23
2022-12-06T11:06:18.923Z,16.21
2022-12-06T11:07:18.916Z,16.21
2022-12-06T11:08:18.977Z,16.23
2022-12-06T11:09:18.894Z,16.21
2022-12-06T11:10:18.957Z,16.23
2022-12-06T11:11:18.861Z,16.21
2022-12-06T11:12:18.858Z,16.21
2022-12-06T11:13:18.849Z,16.23
2022-12-06T11:14:18.860Z,16.23
2022-12-06T11:15:18.832Z,16.23
2022-12-06T11:16:18.849Z,16.23
2022-12-06T11:17:18.803Z,16.23
2022-12-06T11:18:18.806Z,16.21
2022-12-06T11:19:18.803Z,16.23
2022-12-06T11:20:18.879Z,16.21
2022-12-06T11:21:18.753Z,16.23
2022-12-06T11:22:18.988Z,16.23
2022-12-06T11:23:18.737Z,16.23
2022-12-06T11:24:18.930Z,16.23
2022-12-06T11:25:18.720Z,16.21
2022-12-06T11:26:18.721Z,16.24
2022-12-06T11:27:18.691Z,16.23
2022-12-06T11:28:18.665Z,16.23
2022-12-06T11:29:18.680Z,16.21
2022-12-06T11:30:20.530Z,16.23
2022-12-06T11:31:18.736Z,16.21
2022-12-06T11:32:18.650Z,16.23
2022-12-06T11:33:18.629Z,16.23
2022-12-06T11:34:18.620Z,16.21
2022-12-06T11:35:18.603Z,16.23
2022-12-06T11:36:18.592Z,16.21
2022-12-06T11:37:18.599Z,16.21
2022-12-06T11:38:18.602Z,16.21
2022-12-06T11:39:18.585Z,16.21
2022-12-06T11:40:18.547Z,16.21
2022-12-06T11:41:18.524Z,16.21
2022-12-06T11:42:18.529Z,16.20
2022-12-06T11:43:18.541Z,16.21
2022-12-06T11:44:18.536Z,16.20
2022-12-06T11:45:18.502Z,16.20
2022-12-06T11:46:18.536Z,16.17
2022-12-06T11:47:18.479Z,16.17
2022-12-06T11:48:18.475Z,16.16
2022-12-06T11:49:18.468Z,16.16
2022-12-06T11:50:18.449Z,16.15
2022-12-06T11:51:18.453Z,16.16
2022-12-06T11:52:18.417Z,16.16
2022-12-06T11:53:18.406Z,16.16
2022-12-06T11:54:18.397Z,16.16
2022-12-06T11:55:18.407Z,16.16
2022-12-06T11:56:18.364Z,16.17
2022-12-06T11:57:22.417Z,16.16
2022-12-06T11:58:18.367Z,16.17
2022-12-06T11:59:18.332Z,16.17
2022-12-06T12:00:18.441Z,16.17
2022-12-06T12:01:18.512Z,16.17
2022-12-06T12:02:19.680Z,16.17
2022-12-06T12:03:18.361Z,16.20
2022-12-06T12:04:18.296Z,16.20
2022-12-06T12:05:18.289Z,16.20
2022-12-06T12:06:18.328Z,16.21
2022-12-06T12:07:18.282Z,16.21
2022-12-06T12:08:18.328Z,16.21
2022-12-06T12:09:18.232Z,16.23
2022-12-06T12:10:18.222Z,16.23
2022-12-06T12:11:18.206Z,16.23
2022-12-06T12:12:18.231Z,16.24
2022-12-06T12:13:18.174Z,16.24
2022-12-06T12:14:18.177Z,16.24
2022-12-06T12:15:18.281Z,16.24
2022-12-06T12:16:18.864Z,16.24
2022-12-06T12:17:18.145Z,16.24
2022-12-06T12:18:18.163Z,16.24
2022-12-06T12:19:18.112Z,16.26
2022-12-06T12:20:18.124Z,16.24
2022-12-06T12:21:18.125Z,16.26
2022-12-06T12:22:18.108Z,16.26
2022-12-06T12:23:18.113Z,16.26
2022-12-06T12:24:18.073Z,16.26
2022-12-06T12:25:19.452Z,16.26
2022-12-06T12:26:18.131Z,16.26
2022-12-06T12:27:22.204Z,16.26
2022-12-06T12:28:19.116Z,16.28
2022-12-06T12:29:18.031Z,16.28
2022-12-06T12:30:18.050Z,16.28
2022-12-06T12:31:18.170Z,16.29
2022-12-06T12:32:18.045Z,16.28
2022-12-06T12:33:19.238Z,16.29
2022-12-06T12:34:18.024Z,16.28
2022-12-06T12:35:17.939Z,16.26
2022-12-06T12:36:18.332Z,16.28
2022-12-06T12:37:17.910Z,16.29
2022-12-06T12:38:17.989Z,16.28
2022-12-06T12:39:17.931Z,16.31
2022-12-06T12:40:17.881Z,16.32
2022-12-06T12:41:17.898Z,16.32
2022-12-06T12:42:17.894Z,16.33
2022-12-06T12:43:17.857Z,16.33
2022-12-06T12:44:36.910Z,16.35
2022-12-06T12:45:18.851Z,16.36
2022-12-06T12:46:18.067Z,16.36
2022-12-06T12:47:17.821Z,16.36
2022-12-06T12:48:17.846Z,16.35
2022-12-06T12:49:17.791Z,16.36
2022-12-06T12:50:17.803Z,16.36
2022-12-06T12:51:17.759Z,16.36
2022-12-06T12:52:17.752Z,16.38